N959AW SABE-SAZN
Flight info
| Callsign | N959AW |
|---|---|
| Flight time | 1h 29m |
| Altitude | 38000 |
| Route | PAL9 TORUL DCT BIXIM UT669 ROPON ROPON3Q |
| Aircraft | CL60/M-SBDE1E2E3FGHIJ1J4J5J7M3RWXYZ/LB1V1D1 |
Departure
| Time | 2026-04-21 19:07 |
|---|---|
| Airport | Aeroparque Jorge Newbery (SABE) |
Arrival
| Time | 2026-04-21 20:36 |
|---|---|
| Airport | Presidente Perón International Airport (SAZN) |
| Time | Latitude | Longitude | Altitude | Speed | Heading |
|---|---|---|---|---|---|
| 2026-04-21 18:41 | -34.56180 | -58.41437 | 34 ft | 0 kts | 213° |
| 2026-04-21 19:02 | -34.56186 | -58.41443 | 34 ft | 0 kts | 221° |
| 2026-04-21 19:03 | -34.56194 | -58.41463 | 34 ft | 5 kts | 265° |
| 2026-04-21 19:03 | -34.56160 | -58.41475 | 34 ft | 9 kts | 37° |
| 2026-04-21 19:03 | -34.56089 | -58.41417 | 32 ft | 14 kts | 34° |
| 2026-04-21 19:03 | -34.56004 | -58.41347 | 31 ft | 15 kts | 32° |
| 2026-04-21 19:04 | -34.55966 | -58.41318 | 30 ft | 9 kts | 34° |
| 2026-04-21 19:04 | -34.55908 | -58.41332 | 29 ft | 12 kts | 290° |
| 2026-04-21 19:04 | -34.55862 | -58.41438 | 28 ft | 16 kts | 298° |
| 2026-04-21 19:04 | -34.55807 | -58.41574 | 27 ft | 19 kts | 296° |
| 2026-04-21 19:05 | -34.55740 | -58.41734 | 26 ft | 23 kts | 297° |
| 2026-04-21 19:05 | -34.55656 | -58.41892 | 24 ft | 18 kts | 303° |
| 2026-04-21 19:05 | -34.55598 | -58.41996 | 24 ft | 13 kts | 303° |
| 2026-04-21 19:05 | -34.55534 | -58.42107 | 24 ft | 17 kts | 305° |
| 2026-04-21 19:06 | -34.55459 | -58.42223 | 25 ft | 14 kts | 307° |
| 2026-04-21 19:06 | -34.55414 | -58.42298 | 26 ft | 11 kts | 303° |
| 2026-04-21 19:06 | -34.55365 | -58.42389 | 26 ft | 14 kts | 288° |
| 2026-04-21 19:06 | -34.55357 | -58.42468 | 27 ft | 3 kts | 269° |
| 2026-04-21 19:07 | -34.55389 | -58.42508 | 28 ft | 12 kts | 181° |
| 2026-04-21 19:07 | -34.55511 | -58.42314 | 27 ft | 71 kts | 123° |
| 2026-04-21 19:07 | -34.55989 | -58.41470 | 76 ft | 161 kts | 125° |
| 2026-04-21 19:07 | -34.56624 | -58.40287 | 933 ft | 177 kts | 122° |
| 2026-04-21 19:08 | -34.57329 | -58.39072 | 2035 ft | 183 kts | 124° |
| 2026-04-21 19:08 | -34.57719 | -58.37620 | 2855 ft | 201 kts | 83° |
| 2026-04-21 19:08 | -34.57269 | -58.36039 | 3870 ft | 208 kts | 61° |
| 2026-04-21 19:08 | -34.56645 | -58.34444 | 4996 ft | 221 kts | 61° |
| 2026-04-21 19:09 | -34.56018 | -58.32795 | 6271 ft | 225 kts | 61° |
| 2026-04-21 19:09 | -34.55382 | -58.31097 | 7468 ft | 232 kts | 61° |
| 2026-04-21 19:09 | -34.54613 | -58.29413 | 8630 ft | 232 kts | 40° |
| 2026-04-21 19:09 | -34.53300 | -58.28529 | 9771 ft | 219 kts | 360° |
| 2026-04-21 19:10 | -34.51902 | -58.28862 | 10933 ft | 210 kts | 328° |
| 2026-04-21 19:10 | -34.50800 | -58.29921 | 12098 ft | 209 kts | 308° |
| 2026-04-21 19:10 | -34.50093 | -58.31424 | 12998 ft | 222 kts | 292° |
| 2026-04-21 19:10 | -34.49907 | -58.33469 | 13122 ft | 277 kts | 263° |
| 2026-04-21 19:11 | -34.50668 | -58.35766 | 13663 ft | 310 kts | 249° |
| 2026-04-21 19:11 | -34.51648 | -58.38110 | 14609 ft | 320 kts | 249° |
| 2026-04-21 19:11 | -34.52650 | -58.40540 | 15723 ft | 323 kts | 249° |
| 2026-04-21 19:11 | -34.53641 | -58.42953 | 16778 ft | 326 kts | 249° |
| 2026-04-21 19:12 | -34.54303 | -58.44567 | 17465 ft | 328 kts | 249° |
| 2026-04-21 19:12 | -34.55660 | -58.47879 | 18770 ft | 333 kts | 248° |
| 2026-04-21 19:12 | -34.57054 | -58.50169 | 19720 ft | 346 kts | 231° |
| 2026-04-21 19:12 | -34.58766 | -58.52162 | 20567 ft | 351 kts | 230° |
| 2026-04-21 19:13 | -34.60539 | -58.54221 | 21434 ft | 354 kts | 231° |
| 2026-04-21 19:13 | -34.62229 | -58.56192 | 22227 ft | 356 kts | 231° |
| 2026-04-21 19:13 | -34.64020 | -58.58283 | 23023 ft | 359 kts | 231° |
| 2026-04-21 19:13 | -34.65801 | -58.60365 | 23803 ft | 362 kts | 231° |
| 2026-04-21 19:14 | -34.67600 | -58.62471 | 24530 ft | 365 kts | 231° |
| 2026-04-21 19:14 | -34.69433 | -58.64619 | 25211 ft | 369 kts | 230° |
| 2026-04-21 19:14 | -34.71249 | -58.66750 | 25884 ft | 373 kts | 231° |
| 2026-04-21 19:14 | -34.73135 | -58.68966 | 26540 ft | 377 kts | 231° |
| 2026-04-21 19:15 | -34.75013 | -58.71174 | 27069 ft | 383 kts | 231° |
| 2026-04-21 19:15 | -34.76940 | -58.73445 | 27432 ft | 393 kts | 230° |
| 2026-04-21 19:15 | -34.78921 | -58.75782 | 27742 ft | 403 kts | 230° |
| 2026-04-21 19:15 | -34.80941 | -58.78164 | 28221 ft | 407 kts | 230° |
| 2026-04-21 19:16 | -34.82964 | -58.80548 | 28872 ft | 406 kts | 230° |
| 2026-04-21 19:16 | -34.84998 | -58.82945 | 29611 ft | 403 kts | 230° |
| 2026-04-21 19:16 | -34.86998 | -58.85303 | 30303 ft | 399 kts | 230° |
| 2026-04-21 19:16 | -34.88968 | -58.87629 | 31011 ft | 394 kts | 231° |
| 2026-04-21 19:17 | -34.92804 | -58.92160 | 32381 ft | 381 kts | 232° |
| 2026-04-21 19:17 | -34.94683 | -58.94383 | 32999 ft | 376 kts | 233° |
| 2026-04-21 19:17 | -34.96553 | -58.96597 | 33626 ft | 372 kts | 234° |
| 2026-04-21 19:18 | -34.98382 | -58.98767 | 34165 ft | 369 kts | 234° |
| 2026-04-21 19:18 | -35.00203 | -59.00929 | 34682 ft | 367 kts | 234° |
| 2026-04-21 19:18 | -35.02019 | -59.03087 | 35168 ft | 364 kts | 234° |
| 2026-04-21 19:18 | -35.03810 | -59.05215 | 35671 ft | 362 kts | 234° |
| 2026-04-21 19:19 | -35.05613 | -59.07364 | 36002 ft | 363 kts | 234° |
| 2026-04-21 19:19 | -35.07393 | -59.09483 | 36430 ft | 360 kts | 234° |
| 2026-04-21 19:19 | -35.09174 | -59.11607 | 36786 ft | 360 kts | 234° |
| 2026-04-21 19:19 | -35.10961 | -59.13741 | 37054 ft | 361 kts | 234° |
| 2026-04-21 19:20 | -35.12745 | -59.15870 | 37344 ft | 361 kts | 234° |
| 2026-04-21 19:20 | -35.14520 | -59.17990 | 37652 ft | 360 kts | 234° |
| 2026-04-21 19:20 | -35.16317 | -59.20139 | 37934 ft | 360 kts | 234° |
| 2026-04-21 19:20 | -35.18113 | -59.22290 | 37984 ft | 363 kts | 234° |
| 2026-04-21 19:21 | -35.21740 | -59.26644 | 37993 ft | 374 kts | 234° |
| 2026-04-21 19:21 | -35.25505 | -59.31166 | 37989 ft | 386 kts | 234° |
| 2026-04-21 19:22 | -35.29372 | -59.35812 | 37987 ft | 395 kts | 233° |
| 2026-04-21 19:22 | -35.33338 | -59.40583 | 37988 ft | 404 kts | 233° |
| 2026-04-21 19:23 | -35.37159 | -59.45629 | 37990 ft | 401 kts | 242° |
| 2026-04-21 19:23 | -35.40402 | -59.51194 | 37991 ft | 406 kts | 242° |
| 2026-04-21 19:24 | -35.43688 | -59.56837 | 37988 ft | 410 kts | 242° |
| 2026-04-21 19:24 | -35.47015 | -59.62554 | 37992 ft | 412 kts | 241° |
| 2026-04-21 19:25 | -35.50337 | -59.68269 | 37991 ft | 412 kts | 242° |
| 2026-04-21 19:25 | -35.53642 | -59.73964 | 37990 ft | 411 kts | 242° |
| 2026-04-21 19:26 | -35.56943 | -59.79662 | 37994 ft | 411 kts | 242° |
| 2026-04-21 19:26 | -35.60242 | -59.85368 | 38002 ft | 411 kts | 242° |
| 2026-04-21 19:27 | -35.63518 | -59.91040 | 38009 ft | 411 kts | 242° |
| 2026-04-21 19:27 | -35.66821 | -59.96771 | 37995 ft | 411 kts | 242° |
| 2026-04-21 19:28 | -35.70100 | -60.02468 | 38006 ft | 412 kts | 242° |
| 2026-04-21 19:28 | -35.73398 | -60.08210 | 38007 ft | 412 kts | 242° |
| 2026-04-21 19:29 | -35.76712 | -60.13986 | 38008 ft | 413 kts | 242° |
| 2026-04-21 19:29 | -35.80001 | -60.19730 | 38007 ft | 413 kts | 242° |
| 2026-04-21 19:30 | -35.83295 | -60.25492 | 38016 ft | 413 kts | 242° |
| 2026-04-21 19:30 | -35.86593 | -60.31271 | 38007 ft | 413 kts | 242° |
| 2026-04-21 19:31 | -35.89874 | -60.37029 | 38015 ft | 412 kts | 242° |
| 2026-04-21 19:31 | -35.93162 | -60.42811 | 38014 ft | 412 kts | 242° |
| 2026-04-21 19:32 | -35.96437 | -60.48579 | 38020 ft | 413 kts | 242° |
| 2026-04-21 19:32 | -35.99728 | -60.54385 | 38019 ft | 414 kts | 242° |
| 2026-04-21 19:33 | -36.03014 | -60.60192 | 38022 ft | 414 kts | 242° |
| 2026-04-21 19:33 | -36.06292 | -60.65994 | 38027 ft | 413 kts | 242° |
| 2026-04-21 19:34 | -36.09564 | -60.71795 | 38027 ft | 413 kts | 242° |
| 2026-04-21 19:34 | -36.12849 | -60.77629 | 38027 ft | 413 kts | 242° |
| 2026-04-21 19:35 | -36.17780 | -60.86407 | 38027 ft | 414 kts | 242° |
| 2026-04-21 19:36 | -36.21050 | -60.92242 | 38032 ft | 416 kts | 242° |
| 2026-04-21 19:36 | -36.24344 | -60.98128 | 38037 ft | 417 kts | 242° |
| 2026-04-21 19:37 | -36.27643 | -61.04032 | 38038 ft | 417 kts | 242° |
| 2026-04-21 19:37 | -36.30925 | -61.09916 | 38047 ft | 417 kts | 242° |
| 2026-04-21 19:38 | -36.34219 | -61.15833 | 38051 ft | 418 kts | 242° |
| 2026-04-21 19:38 | -36.36954 | -61.20753 | 38047 ft | 419 kts | 242° |
| 2026-04-21 19:39 | -36.40806 | -61.27696 | 38048 ft | 420 kts | 242° |
| 2026-04-21 19:39 | -36.44120 | -61.33680 | 38049 ft | 421 kts | 242° |
| 2026-04-21 19:40 | -36.47420 | -61.39649 | 38048 ft | 422 kts | 242° |
| 2026-04-21 19:40 | -36.50714 | -61.45617 | 38047 ft | 422 kts | 242° |
| 2026-04-21 19:41 | -36.54015 | -61.51608 | 38050 ft | 422 kts | 242° |
| 2026-04-21 19:41 | -36.57325 | -61.57628 | 38048 ft | 423 kts | 242° |
| 2026-04-21 19:42 | -36.60648 | -61.63680 | 38047 ft | 424 kts | 242° |
| 2026-04-21 19:42 | -36.63951 | -61.69709 | 38044 ft | 425 kts | 242° |
| 2026-04-21 19:43 | -36.67276 | -61.75787 | 38049 ft | 425 kts | 242° |
| 2026-04-21 19:43 | -36.70577 | -61.81831 | 38046 ft | 425 kts | 242° |
| 2026-04-21 19:44 | -36.73908 | -61.87944 | 38048 ft | 425 kts | 242° |
| 2026-04-21 19:44 | -36.77206 | -61.94006 | 38048 ft | 425 kts | 242° |
| 2026-04-21 19:45 | -36.80516 | -62.00100 | 38042 ft | 426 kts | 242° |
| 2026-04-21 19:45 | -36.83823 | -62.06203 | 38052 ft | 427 kts | 242° |
| 2026-04-21 19:46 | -36.87132 | -62.12317 | 38052 ft | 427 kts | 242° |
| 2026-04-21 19:46 | -36.90432 | -62.18427 | 38057 ft | 427 kts | 242° |
| 2026-04-21 19:47 | -36.93738 | -62.24559 | 38054 ft | 427 kts | 242° |
| 2026-04-21 19:47 | -36.97013 | -62.30644 | 38061 ft | 427 kts | 242° |
| 2026-04-21 19:48 | -37.00325 | -62.36811 | 38065 ft | 428 kts | 242° |
| 2026-04-21 19:48 | -37.03626 | -62.42969 | 38072 ft | 430 kts | 241° |
| 2026-04-21 19:49 | -37.06949 | -62.49177 | 38074 ft | 429 kts | 241° |
| 2026-04-21 19:49 | -37.10235 | -62.55328 | 38081 ft | 429 kts | 241° |
| 2026-04-21 19:50 | -37.12978 | -62.60471 | 38080 ft | 429 kts | 241° |
| 2026-04-21 19:50 | -37.16743 | -62.67546 | 38076 ft | 430 kts | 242° |
| 2026-04-21 19:51 | -37.20041 | -62.73755 | 38079 ft | 430 kts | 241° |
| 2026-04-21 19:51 | -37.23339 | -62.79974 | 38075 ft | 429 kts | 242° |
| 2026-04-21 19:52 | -37.26611 | -62.86155 | 38081 ft | 428 kts | 241° |
| 2026-04-21 19:52 | -37.29901 | -62.92382 | 38088 ft | 427 kts | 241° |
| 2026-04-21 19:53 | -37.33157 | -62.98557 | 38086 ft | 427 kts | 242° |
| 2026-04-21 19:53 | -37.36075 | -63.04934 | 38087 ft | 423 kts | 249° |
| 2026-04-21 19:54 | -37.38573 | -63.11571 | 38082 ft | 423 kts | 248° |
| 2026-04-21 19:54 | -37.41089 | -63.18243 | 38083 ft | 422 kts | 249° |
| 2026-04-21 19:55 | -37.43595 | -63.24900 | 38075 ft | 423 kts | 248° |
| 2026-04-21 19:55 | -37.46086 | -63.31528 | 38087 ft | 423 kts | 248° |
| 2026-04-21 19:56 | -37.48595 | -63.38213 | 38083 ft | 423 kts | 248° |
| 2026-04-21 19:56 | -37.51090 | -63.44873 | 38083 ft | 424 kts | 248° |
| 2026-04-21 19:57 | -37.53599 | -63.51584 | 38080 ft | 424 kts | 248° |
| 2026-04-21 19:57 | -37.56095 | -63.58274 | 38091 ft | 424 kts | 248° |
| 2026-04-21 19:58 | -37.58589 | -63.64973 | 38093 ft | 424 kts | 248° |
| 2026-04-21 19:58 | -37.61070 | -63.71648 | 38090 ft | 424 kts | 248° |
| 2026-04-21 19:59 | -37.63542 | -63.78315 | 38089 ft | 423 kts | 248° |
| 2026-04-21 19:59 | -37.66015 | -63.85000 | 38085 ft | 423 kts | 248° |
| 2026-04-21 20:00 | -37.68484 | -63.91687 | 38093 ft | 423 kts | 248° |
| 2026-04-21 20:00 | -37.70917 | -63.98289 | 38095 ft | 422 kts | 248° |
| 2026-04-21 20:01 | -37.73354 | -64.04919 | 38098 ft | 422 kts | 248° |
| 2026-04-21 20:01 | -37.75824 | -64.11655 | 38101 ft | 423 kts | 248° |
| 2026-04-21 20:02 | -37.78280 | -64.18364 | 38104 ft | 425 kts | 248° |
| 2026-04-21 20:02 | -37.80732 | -64.25079 | 38098 ft | 425 kts | 248° |
| 2026-04-21 20:03 | -37.83196 | -64.31840 | 38105 ft | 425 kts | 248° |
| 2026-04-21 20:03 | -37.85650 | -64.38591 | 38090 ft | 425 kts | 248° |
| 2026-04-21 20:04 | -37.88070 | -64.45262 | 38106 ft | 425 kts | 248° |
| 2026-04-21 20:04 | -37.90526 | -64.52047 | 38102 ft | 425 kts | 248° |
| 2026-04-21 20:05 | -37.92950 | -64.58759 | 38091 ft | 426 kts | 248° |
| 2026-04-21 20:05 | -37.95416 | -64.65603 | 38093 ft | 426 kts | 248° |
| 2026-04-21 20:06 | -37.97866 | -64.72415 | 38100 ft | 426 kts | 248° |
| 2026-04-21 20:06 | -38.00306 | -64.79220 | 38093 ft | 427 kts | 248° |
| 2026-04-21 20:07 | -38.02747 | -64.86039 | 38104 ft | 427 kts | 248° |
| 2026-04-21 20:07 | -38.05202 | -64.92913 | 38101 ft | 428 kts | 248° |
| 2026-04-21 20:08 | -38.07643 | -64.99766 | 38089 ft | 429 kts | 248° |
| 2026-04-21 20:08 | -38.10089 | -65.06647 | 38091 ft | 429 kts | 248° |
| 2026-04-21 20:09 | -38.12543 | -65.13568 | 38074 ft | 429 kts | 248° |
| 2026-04-21 20:09 | -38.14970 | -65.20429 | 38085 ft | 429 kts | 248° |
| 2026-04-21 20:10 | -38.17393 | -65.27291 | 38086 ft | 429 kts | 248° |
| 2026-04-21 20:10 | -38.19834 | -65.34224 | 38074 ft | 429 kts | 248° |
| 2026-04-21 20:11 | -38.22258 | -65.41123 | 38075 ft | 430 kts | 248° |
| 2026-04-21 20:11 | -38.24688 | -65.48057 | 38078 ft | 430 kts | 248° |
| 2026-04-21 20:12 | -38.27109 | -65.54979 | 38056 ft | 432 kts | 248° |
| 2026-04-21 20:12 | -38.29144 | -65.60810 | 38072 ft | 432 kts | 248° |
| 2026-04-21 20:13 | -38.31941 | -65.68843 | 38063 ft | 433 kts | 249° |
| 2026-04-21 20:13 | -38.34369 | -65.75835 | 38037 ft | 434 kts | 249° |
| 2026-04-21 20:13 | -38.35585 | -65.79348 | 37590 ft | 440 kts | 249° |
| 2026-04-21 20:14 | -38.36814 | -65.82896 | 37027 ft | 437 kts | 249° |
| 2026-04-21 20:14 | -38.38029 | -65.86408 | 36508 ft | 431 kts | 249° |
| 2026-04-21 20:14 | -38.39232 | -65.89889 | 35991 ft | 430 kts | 249° |
| 2026-04-21 20:14 | -38.40429 | -65.93360 | 35463 ft | 430 kts | 248° |
| 2026-04-21 20:15 | -38.41627 | -65.96827 | 34875 ft | 430 kts | 248° |
| 2026-04-21 20:15 | -38.42833 | -66.00291 | 34312 ft | 431 kts | 248° |
| 2026-04-21 20:15 | -38.44049 | -66.03793 | 33695 ft | 432 kts | 248° |
| 2026-04-21 20:15 | -38.45262 | -66.07287 | 33153 ft | 433 kts | 248° |
| 2026-04-21 20:16 | -38.46471 | -66.10774 | 32566 ft | 433 kts | 247° |
| 2026-04-21 20:16 | -38.47691 | -66.14296 | 32003 ft | 434 kts | 247° |
| 2026-04-21 20:16 | -38.48902 | -66.17799 | 31434 ft | 436 kts | 247° |
| 2026-04-21 20:16 | -38.50120 | -66.21323 | 30858 ft | 438 kts | 246° |
| 2026-04-21 20:17 | -38.51348 | -66.24882 | 30268 ft | 440 kts | 246° |
| 2026-04-21 20:17 | -38.52574 | -66.28442 | 29694 ft | 442 kts | 246° |
| 2026-04-21 20:17 | -38.53820 | -66.32063 | 29091 ft | 444 kts | 246° |
| 2026-04-21 20:17 | -38.55052 | -66.35646 | 28511 ft | 441 kts | 246° |
| 2026-04-21 20:18 | -38.55865 | -66.38012 | 28122 ft | 434 kts | 246° |
| 2026-04-21 20:18 | -38.57457 | -66.42654 | 27362 ft | 422 kts | 246° |
| 2026-04-21 20:18 | -38.58610 | -66.46019 | 26809 ft | 413 kts | 246° |
| 2026-04-21 20:18 | -38.59756 | -66.49363 | 26243 ft | 407 kts | 246° |
| 2026-04-21 20:19 | -38.60873 | -66.52628 | 25701 ft | 405 kts | 246° |
| 2026-04-21 20:19 | -38.61994 | -66.55906 | 25169 ft | 403 kts | 246° |
| 2026-04-21 20:19 | -38.63107 | -66.59167 | 24637 ft | 401 kts | 246° |
| 2026-04-21 20:19 | -38.64222 | -66.62440 | 24106 ft | 398 kts | 246° |
| 2026-04-21 20:20 | -38.65310 | -66.65630 | 23584 ft | 395 kts | 247° |
| 2026-04-21 20:20 | -38.66388 | -66.68800 | 23073 ft | 393 kts | 247° |
| 2026-04-21 20:20 | -38.67466 | -66.71973 | 22555 ft | 390 kts | 247° |
| 2026-04-21 20:20 | -38.68539 | -66.75133 | 22035 ft | 387 kts | 247° |
| 2026-04-21 20:21 | -38.69604 | -66.78274 | 21529 ft | 385 kts | 248° |
| 2026-04-21 20:21 | -38.70673 | -66.81428 | 21009 ft | 382 kts | 248° |
| 2026-04-21 20:21 | -38.71723 | -66.84532 | 20511 ft | 380 kts | 248° |
| 2026-04-21 20:21 | -38.72767 | -66.87620 | 20007 ft | 378 kts | 248° |
| 2026-04-21 20:22 | -38.73794 | -66.90663 | 19514 ft | 376 kts | 248° |
| 2026-04-21 20:22 | -38.75853 | -66.96770 | 18523 ft | 372 kts | 248° |
| 2026-04-21 20:22 | -38.76879 | -66.99817 | 18031 ft | 370 kts | 248° |
| 2026-04-21 20:23 | -38.77898 | -67.02846 | 17536 ft | 368 kts | 248° |
| 2026-04-21 20:23 | -38.78905 | -67.05846 | 17050 ft | 365 kts | 249° |
| 2026-04-21 20:23 | -38.79900 | -67.08808 | 16572 ft | 362 kts | 249° |
| 2026-04-21 20:23 | -38.80889 | -67.11760 | 16091 ft | 360 kts | 249° |
| 2026-04-21 20:24 | -38.81867 | -67.14681 | 15620 ft | 357 kts | 249° |
| 2026-04-21 20:24 | -38.82840 | -67.17587 | 15150 ft | 354 kts | 249° |
| 2026-04-21 20:24 | -38.83811 | -67.20491 | 14679 ft | 351 kts | 249° |
| 2026-04-21 20:24 | -38.84757 | -67.23325 | 14223 ft | 348 kts | 249° |
| 2026-04-21 20:25 | -38.85716 | -67.26201 | 13754 ft | 346 kts | 249° |
| 2026-04-21 20:25 | -38.86643 | -67.28981 | 13307 ft | 342 kts | 249° |
| 2026-04-21 20:25 | -38.87586 | -67.31813 | 12844 ft | 340 kts | 249° |
| 2026-04-21 20:25 | -38.88504 | -67.34573 | 12397 ft | 337 kts | 249° |
| 2026-04-21 20:26 | -38.89422 | -67.37336 | 11954 ft | 335 kts | 249° |
| 2026-04-21 20:26 | -38.90338 | -67.40096 | 11502 ft | 333 kts | 249° |
| 2026-04-21 20:26 | -38.91240 | -67.42817 | 11060 ft | 331 kts | 249° |
| 2026-04-21 20:26 | -38.92140 | -67.45533 | 10542 ft | 331 kts | 249° |
| 2026-04-21 20:27 | -38.93031 | -67.48225 | 10116 ft | 324 kts | 248° |
| 2026-04-21 20:27 | -38.93842 | -67.50875 | 9691 ft | 315 kts | 256° |
| 2026-04-21 20:27 | -38.94087 | -67.53612 | 9270 ft | 305 kts | 269° |
| 2026-04-21 20:27 | -38.94124 | -67.56296 | 8869 ft | 296 kts | 269° |
| 2026-04-21 20:28 | -38.94169 | -67.58890 | 8481 ft | 289 kts | 269° |
| 2026-04-21 20:28 | -38.94214 | -67.61460 | 8089 ft | 282 kts | 269° |
| 2026-04-21 20:28 | -38.94256 | -67.63905 | 7713 ft | 271 kts | 270° |
| 2026-04-21 20:28 | -38.94297 | -67.66289 | 7369 ft | 258 kts | 270° |
| 2026-04-21 20:29 | -38.94336 | -67.68528 | 7081 ft | 251 kts | 271° |
| 2026-04-21 20:29 | -38.94373 | -67.70769 | 6713 ft | 249 kts | 271° |
| 2026-04-21 20:29 | -38.94410 | -67.72960 | 6392 ft | 244 kts | 271° |
| 2026-04-21 20:29 | -38.94445 | -67.75125 | 6063 ft | 240 kts | 271° |
| 2026-04-21 20:30 | -38.94480 | -67.77247 | 5753 ft | 235 kts | 271° |
| 2026-04-21 20:30 | -38.94513 | -67.79301 | 5448 ft | 230 kts | 271° |
| 2026-04-21 20:30 | -38.94555 | -67.81335 | 5147 ft | 225 kts | 270° |
| 2026-04-21 20:30 | -38.94627 | -67.83320 | 4855 ft | 220 kts | 270° |
| 2026-04-21 20:31 | -38.94700 | -67.85273 | 4552 ft | 215 kts | 270° |
| 2026-04-21 20:31 | -38.94769 | -67.87144 | 4274 ft | 207 kts | 270° |
| 2026-04-21 20:31 | -38.94836 | -67.88959 | 4037 ft | 196 kts | 270° |
| 2026-04-21 20:31 | -38.94899 | -67.90670 | 3787 ft | 192 kts | 270° |
| 2026-04-21 20:32 | -38.94945 | -67.92366 | 3559 ft | 190 kts | 272° |
| 2026-04-21 20:32 | -38.94947 | -67.94080 | 3537 ft | 191 kts | 272° |
| 2026-04-21 20:32 | -38.94946 | -67.95794 | 3537 ft | 192 kts | 272° |
| 2026-04-21 20:32 | -38.94944 | -67.97541 | 3297 ft | 193 kts | 272° |
| 2026-04-21 20:33 | -38.94943 | -67.99211 | 3081 ft | 181 kts | 273° |
| 2026-04-21 20:33 | -38.94942 | -68.00761 | 2813 ft | 165 kts | 273° |
| 2026-04-21 20:33 | -38.94941 | -68.02146 | 2650 ft | 147 kts | 273° |
| 2026-04-21 20:33 | -38.94938 | -68.03404 | 2493 ft | 137 kts | 274° |
| 2026-04-21 20:34 | -38.94935 | -68.04572 | 2327 ft | 126 kts | 274° |
| 2026-04-21 20:34 | -38.94929 | -68.05713 | 2134 ft | 127 kts | 274° |
| 2026-04-21 20:34 | -38.94926 | -68.06833 | 1967 ft | 125 kts | 274° |
| 2026-04-21 20:34 | -38.94922 | -68.07961 | 1784 ft | 126 kts | 274° |
| 2026-04-21 20:35 | -38.94918 | -68.09069 | 1633 ft | 125 kts | 274° |
| 2026-04-21 20:35 | -38.94915 | -68.10198 | 1465 ft | 125 kts | 276° |
| 2026-04-21 20:35 | -38.94913 | -68.11317 | 1307 ft | 126 kts | 274° |
| 2026-04-21 20:35 | -38.94906 | -68.12440 | 1158 ft | 129 kts | 275° |
| 2026-04-21 20:36 | -38.94900 | -68.13575 | 1021 ft | 125 kts | 274° |
| 2026-04-21 20:36 | -38.94902 | -68.14652 | 909 ft | 110 kts | 273° |
| 2026-04-21 20:36 | -38.94901 | -68.15496 | 905 ft | 77 kts | 274° |
| 2026-04-21 20:36 | -38.94901 | -68.15971 | 905 ft | 21 kts | 270° |
| 2026-04-21 20:37 | -38.94907 | -68.16079 | 905 ft | 4 kts | 1° |
| 2026-04-21 20:37 | -38.94900 | -68.16027 | 905 ft | 10 kts | 86° |
| 2026-04-21 20:37 | -38.94900 | -68.15899 | 905 ft | 17 kts | 90° |
| 2026-04-21 20:37 | -38.94900 | -68.15710 | 905 ft | 23 kts | 90° |
| 2026-04-21 20:38 | -38.94899 | -68.15485 | 905 ft | 27 kts | 89° |
| 2026-04-21 20:38 | -38.94901 | -68.15239 | 905 ft | 20 kts | 90° |
| 2026-04-21 20:38 | -38.94913 | -68.15128 | 905 ft | 13 kts | 117° |
| 2026-04-21 20:38 | -38.94988 | -68.15025 | 905 ft | 17 kts | 135° |
| 2026-04-21 20:39 | -38.95064 | -68.14926 | 905 ft | 12 kts | 132° |
| 2026-04-21 20:39 | -38.95091 | -68.14803 | 905 ft | 16 kts | 86° |
| 2026-04-21 20:39 | -38.95089 | -68.14636 | 905 ft | 20 kts | 89° |
| 2026-04-21 20:39 | -38.95093 | -68.14438 | 905 ft | 23 kts | 91° |
| 2026-04-21 20:40 | -38.95092 | -68.14259 | 905 ft | 18 kts | 88° |
| 2026-04-21 20:40 | -38.95092 | -68.14162 | 905 ft | 0 kts | 98° |
| 2026-04-21 20:40 | -38.95095 | -68.14155 | 905 ft | 2 kts | 127° |
| 2026-04-21 20:40 | -38.95093 | -68.14112 | 905 ft | 7 kts | 83° |
| 2026-04-21 20:41 | -38.95093 | -68.14032 | 905 ft | 9 kts | 90° |
| 2026-04-21 20:41 | -38.95099 | -68.13972 | 905 ft | 8 kts | 144° |
| 2026-04-21 20:41 | -38.95147 | -68.13970 | 905 ft | 5 kts | 179° |
| 2026-04-21 20:41 | -38.95161 | -68.13970 | 905 ft | 0 kts | 180° |